sensor_id;sensor_type;location;lat;lon;timestamp;P1;durP1;ratioP1;P2;durP2;ratioP2
48205;SDS011;33995;48.202;16.260;2023-06-14T00:02:17;4.93;;;4.53;;
48205;SDS011;33995;48.202;16.260;2023-06-14T00:04:45;5.47;;;4.93;;
48205;SDS011;33995;48.202;16.260;2023-06-14T00:07:18;4.87;;;4.37;;
48205;SDS011;33995;48.202;16.260;2023-06-14T00:09:48;5.10;;;4.70;;
48205;SDS011;33995;48.202;16.260;2023-06-14T00:12:19;6.37;;;4.90;;
48205;SDS011;33995;48.202;16.260;2023-06-14T00:14:50;7.57;;;5.30;;
48205;SDS011;33995;48.202;16.260;2023-06-14T00:17:20;5.00;;;4.60;;
48205;SDS011;33995;48.202;16.260;2023-06-14T00:19:52;6.33;;;5.00;;
48205;SDS011;33995;48.202;16.260;2023-06-14T00:22:22;5.87;;;4.50;;
48205;SDS011;33995;48.202;16.260;2023-06-14T00:24:53;5.80;;;4.60;;
48205;SDS011;33995;48.202;16.260;2023-06-14T00:27:24;5.30;;;4.80;;
48205;SDS011;33995;48.202;16.260;2023-06-14T00:29:54;4.90;;;4.50;;
48205;SDS011;33995;48.202;16.260;2023-06-14T00:32:27;7.27;;;4.70;;
48205;SDS011;33995;48.202;16.260;2023-06-14T00:34:58;5.10;;;4.60;;
48205;SDS011;33995;48.202;16.260;2023-06-14T00:37:29;5.30;;;4.77;;
48205;SDS011;33995;48.202;16.260;2023-06-14T00:40:01;6.13;;;4.63;;
48205;SDS011;33995;48.202;16.260;2023-06-14T00:42:35;5.50;;;4.87;;
48205;SDS011;33995;48.202;16.260;2023-06-14T00:45:06;5.80;;;4.80;;
48205;SDS011;33995;48.202;16.260;2023-06-14T00:47:37;5.00;;;4.50;;
48205;SDS011;33995;48.202;16.260;2023-06-14T00:50:09;5.10;;;4.70;;
48205;SDS011;33995;48.202;16.260;2023-06-14T00:52:36;5.63;;;5.10;;
48205;SDS011;33995;48.202;16.260;2023-06-14T00:55:05;4.93;;;4.53;;
48205;SDS011;33995;48.202;16.260;2023-06-14T00:57:33;6.03;;;4.60;;
48205;SDS011;33995;48.202;16.260;2023-06-14T01:00:08;6.60;;;5.00;;
48205;SDS011;33995;48.202;16.260;2023-06-14T01:02:40;5.57;;;4.43;;
48205;SDS011;33995;48.202;16.260;2023-06-14T01:05:10;5.27;;;4.77;;
48205;SDS011;33995;48.202;16.260;2023-06-14T01:07:49;5.20;;;4.70;;
48205;SDS011;33995;48.202;16.260;2023-06-14T01:13:39;6.07;;;5.10;;
48205;SDS011;33995;48.202;16.260;2023-06-14T01:16:16;5.33;;;4.83;;
48205;SDS011;33995;48.202;16.260;2023-06-14T01:18:47;7.00;;;5.10;;
48205;SDS011;33995;48.202;16.260;2023-06-14T01:21:24;4.90;;;4.37;;
48205;SDS011;33995;48.202;16.260;2023-06-14T01:23:55;5.57;;;4.70;;
48205;SDS011;33995;48.202;16.260;2023-06-14T01:26:25;6.63;;;4.90;;
48205;SDS011;33995;48.202;16.260;2023-06-14T01:29:00;6.67;;;4.67;;
48205;SDS011;33995;48.202;16.260;2023-06-14T01:31:32;5.70;;;5.10;;
48205;SDS011;33995;48.202;16.260;2023-06-14T01:34:11;6.50;;;4.60;;
48205;SDS011;33995;48.202;16.260;2023-06-14T01:36:40;6.73;;;5.17;;
48205;SDS011;33995;48.202;16.260;2023-06-14T01:39:13;5.50;;;5.00;;
48205;SDS011;33995;48.202;16.260;2023-06-14T01:41:47;5.93;;;4.73;;
48205;SDS011;33995;48.202;16.260;2023-06-14T01:44:20;5.33;;;4.83;;
48205;SDS011;33995;48.202;16.260;2023-06-14T01:46:52;5.87;;;4.93;;
48205;SDS011;33995;48.202;16.260;2023-06-14T01:49:22;6.17;;;5.00;;
48205;SDS011;33995;48.202;16.260;2023-06-14T01:51:54;5.40;;;4.90;;
48205;SDS011;33995;48.202;16.260;2023-06-14T01:54:24;5.40;;;4.90;;
48205;SDS011;33995;48.202;16.260;2023-06-14T01:56:58;5.30;;;4.80;;
48205;SDS011;33995;48.202;16.260;2023-06-14T01:59:41;4.77;;;4.37;;
48205;SDS011;33995;48.202;16.260;2023-06-14T02:02:12;5.30;;;4.80;;
48205;SDS011;33995;48.202;16.260;2023-06-14T02:04:46;6.27;;;4.97;;
48205;SDS011;33995;48.202;16.260;2023-06-14T02:07:22;6.63;;;4.90;;
48205;SDS011;33995;48.202;16.260;2023-06-14T02:09:55;5.60;;;4.90;;
48205;SDS011;33995;48.202;16.260;2023-06-14T02:12:26;6.30;;;5.03;;
48205;SDS011;33995;48.202;16.260;2023-06-14T02:14:58;6.63;;;5.00;;
48205;SDS011;33995;48.202;16.260;2023-06-14T02:17:29;6.60;;;5.07;;
48205;SDS011;33995;48.202;16.260;2023-06-14T02:20:06;5.63;;;4.93;;
48205;SDS011;33995;48.202;16.260;2023-06-14T02:22:35;5.10;;;4.67;;
48205;SDS011;33995;48.202;16.260;2023-06-14T02:25:07;5.20;;;4.73;;
48205;SDS011;33995;48.202;16.260;2023-06-14T02:27:42;5.40;;;4.90;;
48205;SDS011;33995;48.202;16.260;2023-06-14T02:30:13;5.57;;;4.60;;
48205;SDS011;33995;48.202;16.260;2023-06-14T02:32:48;7.13;;;4.90;;
48205;SDS011;33995;48.202;16.260;2023-06-14T02:35:21;5.60;;;5.00;;
48205;SDS011;33995;48.202;16.260;2023-06-14T02:37:57;5.80;;;5.10;;
48205;SDS011;33995;48.202;16.260;2023-06-14T02:40:28;5.67;;;4.80;;
48205;SDS011;33995;48.202;16.260;2023-06-14T02:42:57;5.37;;;4.87;;
48205;SDS011;33995;48.202;16.260;2023-06-14T02:45:28;5.60;;;5.10;;
48205;SDS011;33995;48.202;16.260;2023-06-14T02:48:03;6.53;;;4.80;;
48205;SDS011;33995;48.202;16.260;2023-06-14T02:50:35;6.13;;;4.90;;
48205;SDS011;33995;48.202;16.260;2023-06-14T02:53:07;5.80;;;5.23;;
48205;SDS011;33995;48.202;16.260;2023-06-14T02:55:41;5.43;;;4.93;;
48205;SDS011;33995;48.202;16.260;2023-06-14T02:58:23;5.87;;;5.30;;
48205;SDS011;33995;48.202;16.260;2023-06-14T03:00:59;5.77;;;5.00;;
48205;SDS011;33995;48.202;16.260;2023-06-14T03:03:37;5.47;;;4.97;;
48205;SDS011;33995;48.202;16.260;2023-06-14T03:06:10;6.03;;;4.80;;
48205;SDS011;33995;48.202;16.260;2023-06-14T03:08:46;6.53;;;5.17;;
48205;SDS011;33995;48.202;16.260;2023-06-14T03:11:20;5.37;;;4.87;;
48205;SDS011;33995;48.202;16.260;2023-06-14T03:13:51;5.50;;;5.00;;
48205;SDS011;33995;48.202;16.260;2023-06-14T03:16:24;5.50;;;5.00;;
48205;SDS011;33995;48.202;16.260;2023-06-14T03:19:00;5.63;;;5.00;;
48205;SDS011;33995;48.202;16.260;2023-06-14T03:21:35;5.73;;;5.23;;
48205;SDS011;33995;48.202;16.260;2023-06-14T03:24:07;6.37;;;5.10;;
48205;SDS011;33995;48.202;16.260;2023-06-14T03:26:39;5.80;;;5.20;;
48205;SDS011;33995;48.202;16.260;2023-06-14T03:29:11;6.33;;;5.20;;
48205;SDS011;33995;48.202;16.260;2023-06-14T03:31:59;5.33;;;4.87;;
48205;SDS011;33995;48.202;16.260;2023-06-14T03:34:37;5.70;;;5.20;;
48205;SDS011;33995;48.202;16.260;2023-06-14T03:37:24;5.50;;;5.00;;
48205;SDS011;33995;48.202;16.260;2023-06-14T03:39:56;5.97;;;5.33;;
48205;SDS011;33995;48.202;16.260;2023-06-14T03:42:27;5.77;;;5.27;;
48205;SDS011;33995;48.202;16.260;2023-06-14T03:44:59;5.80;;;5.30;;
48205;SDS011;33995;48.202;16.260;2023-06-14T03:47:29;5.87;;;5.37;;
48205;SDS011;33995;48.202;16.260;2023-06-14T03:49:59;5.67;;;5.10;;
48205;SDS011;33995;48.202;16.260;2023-06-14T03:52:38;7.40;;;5.43;;
48205;SDS011;33995;48.202;16.260;2023-06-14T03:55:08;5.90;;;5.27;;
48205;SDS011;33995;48.202;16.260;2023-06-14T03:57:45;5.50;;;5.00;;
48205;SDS011;33995;48.202;16.260;2023-06-14T04:00:18;7.17;;;5.60;;
48205;SDS011;33995;48.202;16.260;2023-06-14T04:02:55;6.97;;;5.23;;
48205;SDS011;33995;48.202;16.260;2023-06-14T04:05:29;6.00;;;5.50;;
48205;SDS011;33995;48.202;16.260;2023-06-14T04:08:02;6.50;;;5.23;;
48205;SDS011;33995;48.202;16.260;2023-06-14T04:10:33;5.90;;;5.30;;
48205;SDS011;33995;48.202;16.260;2023-06-14T04:13:04;5.90;;;5.17;;
48205;SDS011;33995;48.202;16.260;2023-06-14T04:15:34;7.33;;;5.30;;
48205;SDS011;33995;48.202;16.260;2023-06-14T04:18:09;5.97;;;5.43;;
48205;SDS011;33995;48.202;16.260;2023-06-14T04:20:40;5.97;;;5.10;;
48205;SDS011;33995;48.202;16.260;2023-06-14T04:23:14;6.50;;;5.90;;
48205;SDS011;33995;48.202;16.260;2023-06-14T04:25:59;6.33;;;5.37;;
48205;SDS011;33995;48.202;16.260;2023-06-14T04:28:33;6.20;;;5.70;;
48205;SDS011;33995;48.202;16.260;2023-06-14T04:31:09;6.20;;;5.27;;
48205;SDS011;33995;48.202;16.260;2023-06-14T04:33:41;5.83;;;5.27;;
48205;SDS011;33995;48.202;16.260;2023-06-14T04:36:23;6.50;;;5.80;;
48205;SDS011;33995;48.202;16.260;2023-06-14T04:38:54;6.30;;;5.57;;
48205;SDS011;33995;48.202;16.260;2023-06-14T04:41:29;6.40;;;5.57;;
48205;SDS011;33995;48.202;16.260;2023-06-14T04:44:01;6.53;;;5.87;;
48205;SDS011;33995;48.202;16.260;2023-06-14T04:46:37;6.37;;;5.77;;
48205;SDS011;33995;48.202;16.260;2023-06-14T04:49:20;6.47;;;5.60;;
48205;SDS011;33995;48.202;16.260;2023-06-14T04:51:53;6.13;;;5.23;;
48205;SDS011;33995;48.202;16.260;2023-06-14T04:54:54;5.53;;;5.03;;
48205;SDS011;33995;48.202;16.260;2023-06-14T04:57:24;7.90;;;5.30;;
48205;SDS011;33995;48.202;16.260;2023-06-14T04:59:59;5.57;;;4.87;;
48205;SDS011;33995;48.202;16.260;2023-06-14T05:02:32;5.50;;;5.00;;
48205;SDS011;33995;48.202;16.260;2023-06-14T05:05:14;6.17;;;5.40;;
48205;SDS011;33995;48.202;16.260;2023-06-14T05:07:46;6.07;;;5.40;;
48205;SDS011;33995;48.202;16.260;2023-06-14T05:10:22;6.67;;;5.50;;
48205;SDS011;33995;48.202;16.260;2023-06-14T05:12:54;5.67;;;4.93;;
48205;SDS011;33995;48.202;16.260;2023-06-14T05:15:22;5.43;;;4.93;;
48205;SDS011;33995;48.202;16.260;2023-06-14T05:17:53;5.60;;;5.00;;
48205;SDS011;33995;48.202;16.260;2023-06-14T05:20:25;5.73;;;5.10;;
48205;SDS011;33995;48.202;16.260;2023-06-14T05:22:55;5.40;;;4.90;;
48205;SDS011;33995;48.202;16.260;2023-06-14T05:25:27;6.03;;;5.43;;
48205;SDS011;33995;48.202;16.260;2023-06-14T05:27:58;6.23;;;5.00;;
48205;SDS011;33995;48.202;16.260;2023-06-14T05:30:30;5.40;;;4.80;;
48205;SDS011;33995;48.202;16.260;2023-06-14T05:33:04;6.03;;;5.03;;
48205;SDS011;33995;48.202;16.260;2023-06-14T05:35:40;5.17;;;4.73;;
48205;SDS011;33995;48.202;16.260;2023-06-14T05:38:22;5.50;;;5.00;;
48205;SDS011;33995;48.202;16.260;2023-06-14T05:40:53;5.30;;;4.80;;
48205;SDS011;33995;48.202;16.260;2023-06-14T05:43:23;5.53;;;5.03;;
48205;SDS011;33995;48.202;16.260;2023-06-14T05:45:54;7.73;;;5.23;;
48205;SDS011;33995;48.202;16.260;2023-06-14T05:48:26;6.13;;;4.80;;
48205;SDS011;33995;48.202;16.260;2023-06-14T05:51:00;6.03;;;5.00;;
48205;SDS011;33995;48.202;16.260;2023-06-14T05:53:30;6.47;;;4.90;;
48205;SDS011;33995;48.202;16.260;2023-06-14T05:55:58;7.17;;;5.00;;
48205;SDS011;33995;48.202;16.260;2023-06-14T05:58:28;5.40;;;4.90;;
48205;SDS011;33995;48.202;16.260;2023-06-14T06:01:01;5.73;;;4.70;;
48205;SDS011;33995;48.202;16.260;2023-06-14T06:03:33;5.60;;;4.67;;
48205;SDS011;33995;48.202;16.260;2023-06-14T06:06:05;5.50;;;4.93;;
48205;SDS011;33995;48.202;16.260;2023-06-14T06:08:44;4.63;;;4.23;;
48205;SDS011;33995;48.202;16.260;2023-06-14T06:11:15;4.87;;;4.40;;
48205;SDS011;33995;48.202;16.260;2023-06-14T06:13:46;4.83;;;4.33;;
48205;SDS011;33995;48.202;16.260;2023-06-14T06:16:20;4.83;;;4.33;;
48205;SDS011;33995;48.202;16.260;2023-06-14T06:18:53;5.43;;;4.20;;
48205;SDS011;33995;48.202;16.260;2023-06-14T06:21:22;6.77;;;5.10;;
48205;SDS011;33995;48.202;16.260;2023-06-14T06:23:59;6.07;;;4.20;;
48205;SDS011;33995;48.202;16.260;2023-06-14T06:26:34;4.97;;;4.47;;
48205;SDS011;33995;48.202;16.260;2023-06-14T06:29:07;5.47;;;4.57;;
48205;SDS011;33995;48.202;16.260;2023-06-14T06:31:38;4.67;;;4.27;;
48205;SDS011;33995;48.202;16.260;2023-06-14T06:34:07;5.23;;;4.73;;
48205;SDS011;33995;48.202;16.260;2023-06-14T06:36:36;4.83;;;4.40;;
48205;SDS011;33995;48.202;16.260;2023-06-14T06:39:14;7.57;;;4.80;;
48205;SDS011;33995;48.202;16.260;2023-06-14T06:41:44;4.40;;;4.00;;
48205;SDS011;33995;48.202;16.260;2023-06-14T06:44:27;5.27;;;4.10;;
48205;SDS011;33995;48.202;16.260;2023-06-14T06:46:57;5.03;;;4.30;;
48205;SDS011;33995;48.202;16.260;2023-06-14T06:49:28;4.53;;;4.13;;
48205;SDS011;33995;48.202;16.260;2023-06-14T06:51:59;4.60;;;4.20;;
48205;SDS011;33995;48.202;16.260;2023-06-14T06:54:51;4.83;;;4.10;;
48205;SDS011;33995;48.202;16.260;2023-06-14T06:57:24;4.73;;;4.13;;
48205;SDS011;33995;48.202;16.260;2023-06-14T06:59:56;5.03;;;3.73;;
48205;SDS011;33995;48.202;16.260;2023-06-14T07:02:28;4.77;;;4.13;;
48205;SDS011;33995;48.202;16.260;2023-06-14T07:05:01;5.47;;;4.40;;
48205;SDS011;33995;48.202;16.260;2023-06-14T07:07:29;4.20;;;3.80;;
48205;SDS011;33995;48.202;16.260;2023-06-14T07:09:58;4.40;;;4.00;;
48205;SDS011;33995;48.202;16.260;2023-06-14T07:12:29;4.93;;;4.50;;
48205;SDS011;33995;48.202;16.260;2023-06-14T07:15:02;4.97;;;4.17;;
48205;SDS011;33995;48.202;16.260;2023-06-14T07:17:35;4.83;;;4.20;;
48205;SDS011;33995;48.202;16.260;2023-06-14T07:20:10;5.47;;;4.60;;
48205;SDS011;33995;48.202;16.260;2023-06-14T07:22:54;4.83;;;4.30;;
48205;SDS011;33995;48.202;16.260;2023-06-14T07:25:25;4.70;;;3.93;;
48205;SDS011;33995;48.202;16.260;2023-06-14T07:27:54;4.93;;;4.43;;
48205;SDS011;33995;48.202;16.260;2023-06-14T07:30:25;5.77;;;4.10;;
48205;SDS011;33995;48.202;16.260;2023-06-14T07:32:58;5.67;;;3.90;;
48205;SDS011;33995;48.202;16.260;2023-06-14T07:35:42;4.57;;;4.00;;
48205;SDS011;33995;48.202;16.260;2023-06-14T07:38:14;4.43;;;3.83;;
48205;SDS011;33995;48.202;16.260;2023-06-14T07:40:58;4.17;;;3.77;;
48205;SDS011;33995;48.202;16.260;2023-06-14T07:43:24;6.57;;;4.13;;
48205;SDS011;33995;48.202;16.260;2023-06-14T07:45:55;4.73;;;4.00;;
48205;SDS011;33995;48.202;16.260;2023-06-14T07:48:35;4.40;;;3.90;;
48205;SDS011;33995;48.202;16.260;2023-06-14T07:51:04;4.37;;;3.97;;
48205;SDS011;33995;48.202;16.260;2023-06-14T07:53:34;5.30;;;4.30;;
48205;SDS011;33995;48.202;16.260;2023-06-14T07:56:05;4.73;;;3.70;;
48205;SDS011;33995;48.202;16.260;2023-06-14T07:58:35;4.23;;;3.83;;
48205;SDS011;33995;48.202;16.260;2023-06-14T08:01:08;4.17;;;3.80;;
48205;SDS011;33995;48.202;16.260;2023-06-14T08:03:38;4.37;;;3.97;;
48205;SDS011;33995;48.202;16.260;2023-06-14T08:06:09;4.47;;;4.07;;
48205;SDS011;33995;48.202;16.260;2023-06-14T08:08:42;4.50;;;3.87;;
48205;SDS011;33995;48.202;16.260;2023-06-14T08:11:11;3.90;;;3.50;;
48205;SDS011;33995;48.202;16.260;2023-06-14T08:13:41;5.13;;;3.97;;
48205;SDS011;33995;48.202;16.260;2023-06-14T08:16:11;4.13;;;3.80;;
48205;SDS011;33995;48.202;16.260;2023-06-14T08:18:42;5.20;;;3.93;;
48205;SDS011;33995;48.202;16.260;2023-06-14T08:21:24;3.97;;;3.57;;
48205;SDS011;33995;48.202;16.260;2023-06-14T08:23:59;4.50;;;4.10;;
48205;SDS011;33995;48.202;16.260;2023-06-14T08:26:30;4.00;;;3.60;;
48205;SDS011;33995;48.202;16.260;2023-06-14T08:29:00;4.20;;;3.80;;
48205;SDS011;33995;48.202;16.260;2023-06-14T08:31:36;5.90;;;3.90;;
48205;SDS011;33995;48.202;16.260;2023-06-14T08:34:10;4.30;;;3.97;;
48205;SDS011;33995;48.202;16.260;2023-06-14T08:36:37;4.23;;;3.83;;
48205;SDS011;33995;48.202;16.260;2023-06-14T08:39:08;4.83;;;3.90;;
48205;SDS011;33995;48.202;16.260;2023-06-14T08:41:42;4.67;;;4.27;;
48205;SDS011;33995;48.202;16.260;2023-06-14T08:44:18;5.77;;;3.97;;
48205;SDS011;33995;48.202;16.260;2023-06-14T08:46:48;5.17;;;3.90;;
48205;SDS011;33995;48.202;16.260;2023-06-14T08:49:16;5.13;;;4.10;;
48205;SDS011;33995;48.202;16.260;2023-06-14T08:51:46;4.53;;;4.13;;
48205;SDS011;33995;48.202;16.260;2023-06-14T08:54:25;7.03;;;4.13;;
48205;SDS011;33995;48.202;16.260;2023-06-14T08:57:12;4.10;;;3.70;;
48205;SDS011;33995;48.202;16.260;2023-06-14T08:59:48;5.70;;;3.70;;
48205;SDS011;33995;48.202;16.260;2023-06-14T09:02:40;5.07;;;3.80;;
48205;SDS011;33995;48.202;16.260;2023-06-14T09:05:13;4.60;;;3.53;;
48205;SDS011;33995;48.202;16.260;2023-06-14T09:07:47;4.27;;;3.87;;
48205;SDS011;33995;48.202;16.260;2023-06-14T09:10:25;4.53;;;3.73;;
48205;SDS011;33995;48.202;16.260;2023-06-14T09:12:57;4.43;;;3.80;;
48205;SDS011;33995;48.202;16.260;2023-06-14T09:15:28;5.37;;;3.60;;
48205;SDS011;33995;48.202;16.260;2023-06-14T09:18:02;4.13;;;3.80;;
48205;SDS011;33995;48.202;16.260;2023-06-14T09:20:31;4.67;;;3.70;;
48205;SDS011;33995;48.202;16.260;2023-06-14T09:23:03;4.40;;;4.00;;
48205;SDS011;33995;48.202;16.260;2023-06-14T09:25:45;4.93;;;3.87;;
48205;SDS011;33995;48.202;16.260;2023-06-14T09:28:19;4.43;;;4.00;;
48205;SDS011;33995;48.202;16.260;2023-06-14T09:30:50;4.60;;;4.10;;
48205;SDS011;33995;48.202;16.260;2023-06-14T09:33:19;7.17;;;4.30;;
48205;SDS011;33995;48.202;16.260;2023-06-14T09:35:52;4.40;;;3.93;;
48205;SDS011;33995;48.202;16.260;2023-06-14T09:38:24;4.53;;;4.00;;
48205;SDS011;33995;48.202;16.260;2023-06-14T09:40:58;5.23;;;4.30;;
48205;SDS011;33995;48.202;16.260;2023-06-14T09:43:28;4.17;;;3.70;;
48205;SDS011;33995;48.202;16.260;2023-06-14T09:46:00;4.80;;;4.30;;
48205;SDS011;33995;48.202;16.260;2023-06-14T09:48:30;5.83;;;4.20;;
48205;SDS011;33995;48.202;16.260;2023-06-14T09:51:02;6.13;;;3.90;;
48205;SDS011;33995;48.202;16.260;2023-06-14T09:53:35;5.87;;;4.10;;
48205;SDS011;33995;48.202;16.260;2023-06-14T09:56:05;4.33;;;3.80;;
48205;SDS011;33995;48.202;16.260;2023-06-14T09:58:39;3.87;;;3.40;;
48205;SDS011;33995;48.202;16.260;2023-06-14T10:01:27;6.20;;;3.90;;
48205;SDS011;33995;48.202;16.260;2023-06-14T10:06:49;3.80;;;3.50;;
48205;SDS011;33995;48.202;16.260;2023-06-14T10:09:23;3.90;;;3.50;;
48205;SDS011;33995;48.202;16.260;2023-06-14T10:12:01;4.13;;;3.73;;
48205;SDS011;33995;48.202;16.260;2023-06-14T10:14:34;5.53;;;3.93;;
48205;SDS011;33995;48.202;16.260;2023-06-14T10:17:09;5.00;;;4.03;;
48205;SDS011;33995;48.202;16.260;2023-06-14T10:19:54;6.87;;;4.50;;
48205;SDS011;33995;48.202;16.260;2023-06-14T10:22:35;4.00;;;3.60;;
48205;SDS011;33995;48.202;16.260;2023-06-14T10:25:29;4.10;;;3.60;;
48205;SDS011;33995;48.202;16.260;2023-06-14T10:33:39;4.20;;;3.60;;
48205;SDS011;33995;48.202;16.260;2023-06-14T10:36:30;4.63;;;4.23;;
48205;SDS011;33995;48.202;16.260;2023-06-14T10:41:56;6.07;;;3.87;;
48205;SDS011;33995;48.202;16.260;2023-06-14T10:44:35;7.60;;;4.27;;
48205;SDS011;33995;48.202;16.260;2023-06-14T10:47:33;4.27;;;3.87;;
48205;SDS011;33995;48.202;16.260;2023-06-14T10:50:06;4.60;;;3.80;;
48205;SDS011;33995;48.202;16.260;2023-06-14T10:52:39;4.60;;;4.10;;
48205;SDS011;33995;48.202;16.260;2023-06-14T10:57:53;3.83;;;3.53;;
48205;SDS011;33995;48.202;16.260;2023-06-14T11:00:38;6.00;;;3.83;;
48205;SDS011;33995;48.202;16.260;2023-06-14T11:03:23;5.70;;;3.77;;
48205;SDS011;33995;48.202;16.260;2023-06-14T11:06:15;4.00;;;3.70;;
48205;SDS011;33995;48.202;16.260;2023-06-14T11:11:50;4.17;;;3.67;;
48205;SDS011;33995;48.202;16.260;2023-06-14T11:14:24;3.97;;;3.50;;
48205;SDS011;33995;48.202;16.260;2023-06-14T11:16:53;5.23;;;3.80;;
48205;SDS011;33995;48.202;16.260;2023-06-14T11:19:26;3.93;;;3.63;;
48205;SDS011;33995;48.202;16.260;2023-06-14T11:22:03;4.43;;;3.90;;
48205;SDS011;33995;48.202;16.260;2023-06-14T11:24:33;5.00;;;3.83;;
48205;SDS011;33995;48.202;16.260;2023-06-14T11:27:06;4.83;;;3.50;;
48205;SDS011;33995;48.202;16.260;2023-06-14T11:29:38;4.20;;;3.70;;
48205;SDS011;33995;48.202;16.260;2023-06-14T11:32:16;4.63;;;3.67;;
48205;SDS011;33995;48.202;16.260;2023-06-14T11:34:47;4.80;;;3.87;;
48205;SDS011;33995;48.202;16.260;2023-06-14T11:37:22;4.33;;;3.93;;
48205;SDS011;33995;48.202;16.260;2023-06-14T11:40:00;4.37;;;3.97;;
48205;SDS011;33995;48.202;16.260;2023-06-14T11:42:32;3.80;;;3.47;;
48205;SDS011;33995;48.202;16.260;2023-06-14T11:45:02;4.77;;;3.53;;
48205;SDS011;33995;48.202;16.260;2023-06-14T11:47:39;4.47;;;3.57;;
48205;SDS011;33995;48.202;16.260;2023-06-14T11:50:11;3.97;;;3.53;;
48205;SDS011;33995;48.202;16.260;2023-06-14T11:52:41;4.10;;;3.50;;
48205;SDS011;33995;48.202;16.260;2023-06-14T11:55:10;4.27;;;3.50;;
48205;SDS011;33995;48.202;16.260;2023-06-14T11:57:40;4.10;;;3.40;;
48205;SDS011;33995;48.202;16.260;2023-06-14T12:00:13;4.13;;;3.33;;
48205;SDS011;33995;48.202;16.260;2023-06-14T12:02:54;6.40;;;3.90;;
48205;SDS011;33995;48.202;16.260;2023-06-14T12:05:27;6.13;;;3.70;;
48205;SDS011;33995;48.202;16.260;2023-06-14T12:07:59;3.77;;;3.47;;
48205;SDS011;33995;48.202;16.260;2023-06-14T12:10:33;4.60;;;3.30;;
48205;SDS011;33995;48.202;16.260;2023-06-14T12:13:16;4.10;;;3.70;;
48205;SDS011;33995;48.202;16.260;2023-06-14T12:15:44;3.77;;;3.40;;
48205;SDS011;33995;48.202;16.260;2023-06-14T12:18:15;6.40;;;3.70;;
48205;SDS011;33995;48.202;16.260;2023-06-14T12:20:48;6.03;;;3.50;;
48205;SDS011;33995;48.202;16.260;2023-06-14T12:23:27;4.80;;;4.00;;
48205;SDS011;33995;48.202;16.260;2023-06-14T12:26:20;4.73;;;3.70;;
48205;SDS011;33995;48.202;16.260;2023-06-14T12:28:56;4.10;;;3.70;;
48205;SDS011;33995;48.202;16.260;2023-06-14T12:31:26;6.20;;;3.90;;
48205;SDS011;33995;48.202;16.260;2023-06-14T12:33:59;3.83;;;3.50;;
48205;SDS011;33995;48.202;16.260;2023-06-14T12:36:31;3.90;;;3.50;;
48205;SDS011;33995;48.202;16.260;2023-06-14T12:39:01;4.00;;;3.60;;
48205;SDS011;33995;48.202;16.260;2023-06-14T12:41:28;3.57;;;3.27;;
48205;SDS011;33995;48.202;16.260;2023-06-14T12:44:00;4.40;;;3.73;;
48205;SDS011;33995;48.202;16.260;2023-06-14T12:46:32;4.00;;;3.60;;
48205;SDS011;33995;48.202;16.260;2023-06-14T12:49:01;3.70;;;3.40;;
48205;SDS011;33995;48.202;16.260;2023-06-14T12:51:32;4.33;;;3.90;;
48205;SDS011;33995;48.202;16.260;2023-06-14T12:54:04;5.10;;;3.90;;
48205;SDS011;33995;48.202;16.260;2023-06-14T12:56:32;4.40;;;3.50;;
48205;SDS011;33995;48.202;16.260;2023-06-14T12:59:08;4.00;;;3.70;;
48205;SDS011;33995;48.202;16.260;2023-06-14T13:01:38;4.93;;;3.73;;
48205;SDS011;33995;48.202;16.260;2023-06-14T13:04:10;5.63;;;3.80;;
48205;SDS011;33995;48.202;16.260;2023-06-14T13:06:41;5.23;;;3.50;;
48205;SDS011;33995;48.202;16.260;2023-06-14T13:09:11;3.90;;;3.43;;
48205;SDS011;33995;48.202;16.260;2023-06-14T13:11:42;4.13;;;3.73;;
48205;SDS011;33995;48.202;16.260;2023-06-14T13:14:16;6.00;;;3.90;;
48205;SDS011;33995;48.202;16.260;2023-06-14T13:16:52;6.63;;;4.07;;
48205;SDS011;33995;48.202;16.260;2023-06-14T13:19:22;4.30;;;3.63;;
48205;SDS011;33995;48.202;16.260;2023-06-14T13:21:53;5.70;;;3.80;;
48205;SDS011;33995;48.202;16.260;2023-06-14T13:24:25;4.57;;;3.60;;
48205;SDS011;33995;48.202;16.260;2023-06-14T13:27:00;3.90;;;3.60;;
48205;SDS011;33995;48.202;16.260;2023-06-14T13:29:31;4.67;;;3.53;;
48205;SDS011;33995;48.202;16.260;2023-06-14T13:32:11;4.37;;;3.77;;
48205;SDS011;33995;48.202;16.260;2023-06-14T13:34:42;4.60;;;3.63;;
48205;SDS011;33995;48.202;16.260;2023-06-14T13:37:13;4.03;;;3.73;;
48205;SDS011;33995;48.202;16.260;2023-06-14T13:39:42;4.57;;;3.50;;
48205;SDS011;33995;48.202;16.260;2023-06-14T13:42:13;4.10;;;3.70;;
48205;SDS011;33995;48.202;16.260;2023-06-14T13:44:41;4.63;;;3.93;;
48205;SDS011;33995;48.202;16.260;2023-06-14T13:47:13;4.63;;;3.90;;
48205;SDS011;33995;48.202;16.260;2023-06-14T13:49:52;5.47;;;3.60;;
48205;SDS011;33995;48.202;16.260;2023-06-14T13:52:23;4.80;;;3.60;;
48205;SDS011;33995;48.202;16.260;2023-06-14T13:54:55;3.80;;;3.50;;
48205;SDS011;33995;48.202;16.260;2023-06-14T13:57:25;4.73;;;3.60;;
48205;SDS011;33995;48.202;16.260;2023-06-14T13:59:57;3.93;;;3.50;;
48205;SDS011;33995;48.202;16.260;2023-06-14T14:02:42;4.17;;;3.77;;
48205;SDS011;33995;48.202;16.260;2023-06-14T14:05:15;6.17;;;3.60;;
48205;SDS011;33995;48.202;16.260;2023-06-14T14:07:45;4.67;;;3.50;;
48205;SDS011;33995;48.202;16.260;2023-06-14T14:10:14;4.30;;;3.90;;
48205;SDS011;33995;48.202;16.260;2023-06-14T14:13:02;4.13;;;3.43;;
48205;SDS011;33995;48.202;16.260;2023-06-14T14:15:36;4.07;;;3.70;;
48205;SDS011;33995;48.202;16.260;2023-06-14T14:18:07;4.43;;;3.90;;
48205;SDS011;33995;48.202;16.260;2023-06-14T14:20:37;4.93;;;3.70;;
48205;SDS011;33995;48.202;16.260;2023-06-14T14:23:15;5.17;;;3.97;;
48205;SDS011;33995;48.202;16.260;2023-06-14T14:25:44;4.23;;;3.80;;
48205;SDS011;33995;48.202;16.260;2023-06-14T14:28:14;4.23;;;3.83;;
48205;SDS011;33995;48.202;16.260;2023-06-14T14:30:45;4.40;;;3.80;;
48205;SDS011;33995;48.202;16.260;2023-06-14T14:33:17;5.30;;;3.97;;
48205;SDS011;33995;48.202;16.260;2023-06-14T14:35:49;5.43;;;3.90;;
48205;SDS011;33995;48.202;16.260;2023-06-14T14:38:23;4.23;;;3.77;;
48205;SDS011;33995;48.202;16.260;2023-06-14T14:40:56;4.63;;;3.90;;
48205;SDS011;33995;48.202;16.260;2023-06-14T14:43:27;4.30;;;3.90;;
48205;SDS011;33995;48.202;16.260;2023-06-14T14:46:00;4.27;;;3.63;;
48205;SDS011;33995;48.202;16.260;2023-06-14T14:48:31;4.10;;;3.73;;
48205;SDS011;33995;48.202;16.260;2023-06-14T14:51:00;4.57;;;3.63;;
48205;SDS011;33995;48.202;16.260;2023-06-14T14:53:30;4.90;;;3.70;;
48205;SDS011;33995;48.202;16.260;2023-06-14T14:56:00;4.20;;;3.80;;
48205;SDS011;33995;48.202;16.260;2023-06-14T14:58:34;4.97;;;3.80;;
48205;SDS011;33995;48.202;16.260;2023-06-14T15:01:08;4.80;;;3.77;;
48205;SDS011;33995;48.202;16.260;2023-06-14T15:03:36;4.00;;;3.67;;
48205;SDS011;33995;48.202;16.260;2023-06-14T15:06:19;3.90;;;3.60;;
48205;SDS011;33995;48.202;16.260;2023-06-14T15:08:52;4.33;;;3.50;;
48205;SDS011;33995;48.202;16.260;2023-06-14T15:11:27;4.33;;;3.50;;
48205;SDS011;33995;48.202;16.260;2023-06-14T15:13:57;3.90;;;3.60;;
48205;SDS011;33995;48.202;16.260;2023-06-14T15:16:36;7.20;;;3.97;;
48205;SDS011;33995;48.202;16.260;2023-06-14T15:19:07;4.03;;;3.63;;
48205;SDS011;33995;48.202;16.260;2023-06-14T15:21:39;5.33;;;3.80;;
48205;SDS011;33995;48.202;16.260;2023-06-14T15:24:10;4.10;;;3.63;;
48205;SDS011;33995;48.202;16.260;2023-06-14T15:26:40;4.10;;;3.70;;
48205;SDS011;33995;48.202;16.260;2023-06-14T15:29:12;3.83;;;3.30;;
48205;SDS011;33995;48.202;16.260;2023-06-14T15:31:44;6.53;;;3.60;;